sensor_id;sensor_type;location;lat;lon;timestamp;pressure;altitude;pressure_sealevel;temperature;humidity
77889;BME280;67082;41.704;44.768;2023-03-23T00:01:18;95591.56;;;14.02;55.48
77889;BME280;67082;41.704;44.768;2023-03-23T00:03:48;95593.28;;;13.99;55.79
77889;BME280;67082;41.704;44.768;2023-03-23T00:06:19;95597.59;;;14.00;56.37
77889;BME280;67082;41.704;44.768;2023-03-23T00:08:48;95592.09;;;13.91;56.20
77889;BME280;67082;41.704;44.768;2023-03-23T00:11:19;95585.94;;;13.87;56.40
77889;BME280;67082;41.704;44.768;2023-03-23T00:13:48;95592.94;;;13.83;56.46
77889;BME280;67082;41.704;44.768;2023-03-23T00:16:20;95608.81;;;13.91;55.25
77889;BME280;67082;41.704;44.768;2023-03-23T00:19:00;95593.84;;;13.89;56.00
77889;BME280;67082;41.704;44.768;2023-03-23T00:21:32;95604.47;;;13.90;55.61
77889;BME280;67082;41.704;44.768;2023-03-23T00:26:37;95595.94;;;13.94;54.28
77889;BME280;67082;41.704;44.768;2023-03-23T00:29:16;95596.13;;;13.90;55.00
77889;BME280;67082;41.704;44.768;2023-03-23T00:31:45;95591.53;;;13.87;55.40
77889;BME280;67082;41.704;44.768;2023-03-23T00:34:20;95591.53;;;13.87;55.78
77889;BME280;67082;41.704;44.768;2023-03-23T00:36:54;95594.59;;;13.89;55.63
77889;BME280;67082;41.704;44.768;2023-03-23T00:39:25;95584.88;;;13.85;55.42
77889;BME280;67082;41.704;44.768;2023-03-23T00:41:54;95590.63;;;13.81;55.87
77889;BME280;67082;41.704;44.768;2023-03-23T00:44:28;95604.56;;;13.81;56.12
77889;BME280;67082;41.704;44.768;2023-03-23T00:46:57;95601.78;;;13.81;56.40
77889;BME280;67082;41.704;44.768;2023-03-23T00:49:25;95605.81;;;13.80;56.54
77889;BME280;67082;41.704;44.768;2023-03-23T00:51:54;95589.94;;;13.72;56.03
77889;BME280;67082;41.704;44.768;2023-03-23T00:54:22;95597.97;;;13.70;56.41
77889;BME280;67082;41.704;44.768;2023-03-23T00:56:50;95588.44;;;13.62;56.30
77889;BME280;67082;41.704;44.768;2023-03-23T00:59:17;95601.59;;;13.61;56.85
77889;BME280;67082;41.704;44.768;2023-03-23T01:01:45;95582.94;;;13.53;57.11
77889;BME280;67082;41.704;44.768;2023-03-23T01:04:14;95603.00;;;13.57;57.68
77889;BME280;67082;41.704;44.768;2023-03-23T01:06:43;95616.81;;;13.51;57.71
77889;BME280;67082;41.704;44.768;2023-03-23T01:09:13;95616.22;;;13.47;57.57
77889;BME280;67082;41.704;44.768;2023-03-23T01:11:44;95620.56;;;13.39;57.80
77889;BME280;67082;41.704;44.768;2023-03-23T01:14:13;95612.22;;;13.39;58.28
77889;BME280;67082;41.704;44.768;2023-03-23T01:16:41;95608.13;;;13.26;58.70
77889;BME280;67082;41.704;44.768;2023-03-23T01:19:08;95614.88;;;13.34;59.13
77889;BME280;67082;41.704;44.768;2023-03-23T01:21:35;95612.09;;;13.34;58.64
77889;BME280;67082;41.704;44.768;2023-03-23T01:24:03;95619.09;;;13.29;58.71
77889;BME280;67082;41.704;44.768;2023-03-23T01:26:29;95618.91;;;13.33;57.98
77889;BME280;67082;41.704;44.768;2023-03-23T01:28:57;95613.78;;;13.40;57.45
77889;BME280;67082;41.704;44.768;2023-03-23T01:31:26;95624.75;;;13.44;57.27
77889;BME280;67082;41.704;44.768;2023-03-23T01:33:54;95622.72;;;13.44;57.47
77889;BME280;67082;41.704;44.768;2023-03-23T01:36:25;95625.31;;;13.48;56.06
77889;BME280;67082;41.704;44.768;2023-03-23T01:39:04;95615.91;;;13.45;53.52
77889;BME280;67082;41.704;44.768;2023-03-23T01:41:33;95605.72;;;13.42;53.44
77889;BME280;67082;41.704;44.768;2023-03-23T01:46:53;95625.56;;;13.59;52.89
77889;BME280;67082;41.704;44.768;2023-03-23T01:49:33;95623.28;;;13.57;53.42
77889;BME280;67082;41.704;44.768;2023-03-23T01:52:11;95635.16;;;13.58;54.26
77889;BME280;67082;41.704;44.768;2023-03-23T01:54:46;95624.22;;;13.54;55.83
77889;BME280;67082;41.704;44.768;2023-03-23T01:57:15;95631.03;;;13.53;56.14
77889;BME280;67082;41.704;44.768;2023-03-23T01:59:48;95624.22;;;13.54;56.54
77889;BME280;67082;41.704;44.768;2023-03-23T02:02:21;95626.72;;;13.52;57.42
77889;BME280;67082;41.704;44.768;2023-03-23T02:04:50;95629.97;;;13.51;57.88
77889;BME280;67082;41.704;44.768;2023-03-23T02:07:20;95632.75;;;13.51;58.05
77889;BME280;67082;41.704;44.768;2023-03-23T02:09:51;95630.59;;;13.46;58.75
77889;BME280;67082;41.704;44.768;2023-03-23T02:12:18;95629.53;;;13.43;58.64
77889;BME280;67082;41.704;44.768;2023-03-23T02:14:47;95625.22;;;13.42;58.89
77889;BME280;67082;41.704;44.768;2023-03-23T02:28:55;95623.97;;;13.43;58.04
77889;BME280;67082;41.704;44.768;2023-03-23T02:36:56;95634.63;;;13.45;56.52
77889;BME280;67082;41.704;44.768;2023-03-23T02:39:38;95614.47;;;13.26;56.63
77889;BME280;67082;41.704;44.768;2023-03-23T02:42:11;95638.22;;;13.36;57.09
77889;BME280;67082;41.704;44.768;2023-03-23T02:44:41;95633.56;;;13.42;55.35
77889;BME280;67082;41.704;44.768;2023-03-23T02:47:17;95645.94;;;13.41;55.11
77889;BME280;67082;41.704;44.768;2023-03-23T02:49:48;95639.13;;;13.42;51.62
77889;BME280;67082;41.704;44.768;2023-03-23T02:52:20;95647.13;;;13.49;50.74
77889;BME280;67082;41.704;44.768;2023-03-23T02:54:50;95650.50;;;13.53;51.33
77889;BME280;67082;41.704;44.768;2023-03-23T02:57:20;95653.00;;;13.51;50.79
77889;BME280;67082;41.704;44.768;2023-03-23T02:59:47;95661.47;;;13.57;52.04
77889;BME280;67082;41.704;44.768;2023-03-23T03:02:21;95655.91;;;13.57;52.96
77889;BME280;67082;41.704;44.768;2023-03-23T03:07:43;95657.63;;;13.54;54.78
77889;BME280;67082;41.704;44.768;2023-03-23T03:18:33;95674.75;;;13.62;53.32
77889;BME280;67082;41.704;44.768;2023-03-23T03:21:07;95676.59;;;13.65;53.14
77889;BME280;67082;41.704;44.768;2023-03-23T03:23:42;95678.63;;;13.64;52.79
77889;BME280;67082;41.704;44.768;2023-03-23T03:26:12;95686.50;;;13.66;52.76
77889;BME280;67082;41.704;44.768;2023-03-23T03:28:49;95677.72;;;13.58;52.75
77889;BME280;67082;41.704;44.768;2023-03-23T03:31:22;95684.22;;;13.55;53.44
77889;BME280;67082;41.704;44.768;2023-03-23T03:33:50;95699.84;;;13.53;53.73
77889;BME280;67082;41.704;44.768;2023-03-23T03:36:21;95695.16;;;13.59;54.24
77889;BME280;67082;41.704;44.768;2023-03-23T03:38:51;95700.09;;;13.64;53.69
77889;BME280;67082;41.704;44.768;2023-03-23T03:41:19;95697.63;;;13.66;53.60
77889;BME280;67082;41.704;44.768;2023-03-23T03:43:47;95695.25;;;13.73;54.27
77889;BME280;67082;41.704;44.768;2023-03-23T03:46:14;95692.19;;;13.71;54.67
77889;BME280;67082;41.704;44.768;2023-03-23T03:48:41;95687.22;;;13.75;54.27
77889;BME280;67082;41.704;44.768;2023-03-23T03:51:08;95692.47;;;13.73;54.52
77889;BME280;67082;41.704;44.768;2023-03-23T03:53:38;95694.94;;;13.80;54.21
77889;BME280;67082;41.704;44.768;2023-03-23T03:56:06;95697.41;;;13.78;54.01
77889;BME280;67082;41.704;44.768;2023-03-23T03:58:40;95697.53;;;13.84;54.53
77889;BME280;67082;41.704;44.768;2023-03-23T04:01:18;95709.63;;;13.81;54.52
77889;BME280;67082;41.704;44.768;2023-03-23T04:04:15;95700.44;;;13.89;54.51
77889;BME280;67082;41.704;44.768;2023-03-23T04:06:42;95711.88;;;13.91;54.76
77889;BME280;67082;41.704;44.768;2023-03-23T04:09:09;95701.78;;;13.94;54.97
77889;BME280;67082;41.704;44.768;2023-03-23T04:11:36;95709.50;;;13.99;54.99
77889;BME280;67082;41.704;44.768;2023-03-23T04:14:23;95713.44;;;13.92;54.85
77889;BME280;67082;41.704;44.768;2023-03-23T04:16:54;95705.06;;;13.92;55.24
77889;BME280;67082;41.704;44.768;2023-03-23T04:19:25;95722.31;;;14.05;54.47
77889;BME280;67082;41.704;44.768;2023-03-23T04:21:51;95716.03;;;13.96;54.49
77889;BME280;67082;41.704;44.768;2023-03-23T04:24:19;95723.63;;;13.95;54.55
77889;BME280;67082;41.704;44.768;2023-03-23T04:26:48;95714.66;;;13.91;54.73
77889;BME280;67082;41.704;44.768;2023-03-23T04:29:23;95726.88;;;13.94;55.20
77889;BME280;67082;41.704;44.768;2023-03-23T04:32:25;95724.25;;;13.90;55.56
77889;BME280;67082;41.704;44.768;2023-03-23T04:34:56;95728.44;;;13.95;54.73
77889;BME280;67082;41.704;44.768;2023-03-23T04:37:33;95719.91;;;13.98;54.71
77889;BME280;67082;41.704;44.768;2023-03-23T04:40:03;95736.06;;;14.09;54.67
77889;BME280;67082;41.704;44.768;2023-03-23T04:42:34;95734.97;;;14.15;54.22
77889;BME280;67082;41.704;44.768;2023-03-23T04:45:10;95730.59;;;14.23;53.69
77889;BME280;67082;41.704;44.768;2023-03-23T04:47:41;95727.41;;;14.39;53.19
77889;BME280;67082;41.704;44.768;2023-03-23T04:50:20;95732.13;;;14.48;52.29
77889;BME280;67082;41.704;44.768;2023-03-23T04:52:50;95734.19;;;14.62;52.49
77889;BME280;67082;41.704;44.768;2023-03-23T04:55:19;95728.13;;;14.63;51.90
77889;BME280;67082;41.704;44.768;2023-03-23T04:57:53;95725.72;;;14.56;52.15
77889;BME280;67082;41.704;44.768;2023-03-23T05:00:34;95735.84;;;14.68;51.38
77889;BME280;67082;41.704;44.768;2023-03-23T05:03:02;95731.16;;;14.74;51.57
77889;BME280;67082;41.704;44.768;2023-03-23T05:05:31;95730.69;;;14.76;51.29
77889;BME280;67082;41.704;44.768;2023-03-23T05:08:04;95730.78;;;14.81;51.87
77889;BME280;67082;41.704;44.768;2023-03-23T05:10:34;95743.03;;;14.98;51.36
77889;BME280;67082;41.704;44.768;2023-03-23T05:13:07;95733.00;;;14.92;51.12
77889;BME280;67082;41.704;44.768;2023-03-23T05:15:34;95742.56;;;15.14;51.38
77889;BME280;67082;41.704;44.768;2023-03-23T05:18:03;95749.50;;;15.19;49.08
77889;BME280;67082;41.704;44.768;2023-03-23T05:20:31;95742.06;;;15.01;49.94
77889;BME280;67082;41.704;44.768;2023-03-23T05:23:07;95751.31;;;15.07;49.66
77889;BME280;67082;41.704;44.768;2023-03-23T05:25:36;95754.19;;;14.98;49.77
77889;BME280;67082;41.704;44.768;2023-03-23T05:28:19;95753.34;;;15.21;50.32
77889;BME280;67082;41.704;44.768;2023-03-23T05:31:04;95742.75;;;15.25;49.96
77889;BME280;67082;41.704;44.768;2023-03-23T05:33:33;95750.88;;;15.38;48.70
77889;BME280;67082;41.704;44.768;2023-03-23T05:36:23;95757.63;;;15.60;49.31
77889;BME280;67082;41.704;44.768;2023-03-23T05:39:07;95747.69;;;15.59;48.54
77889;BME280;67082;41.704;44.768;2023-03-23T05:42:08;95749.91;;;15.55;48.99
77889;BME280;67082;41.704;44.768;2023-03-23T05:44:58;95739.41;;;15.50;48.40
77889;BME280;67082;41.704;44.768;2023-03-23T05:47:26;95728.44;;;15.61;48.58
77889;BME280;67082;41.704;44.768;2023-03-23T05:49:57;95721.31;;;15.60;47.95
77889;BME280;67082;41.704;44.768;2023-03-23T05:52:29;95744.59;;;15.72;48.04
77889;BME280;67082;41.704;44.768;2023-03-23T05:55:00;95748.81;;;15.82;47.60
77889;BME280;67082;41.704;44.768;2023-03-23T05:57:29;95745.13;;;15.90;47.89
77889;BME280;67082;41.704;44.768;2023-03-23T06:00:06;95751.13;;;15.83;48.11
77889;BME280;67082;41.704;44.768;2023-03-23T06:02:47;95744.03;;;16.02;47.54
77889;BME280;67082;41.704;44.768;2023-03-23T06:05:21;95744.63;;;16.06;47.92
77889;BME280;67082;41.704;44.768;2023-03-23T06:07:53;95739.47;;;16.19;47.27
77889;BME280;67082;41.704;44.768;2023-03-23T06:10:20;95745.91;;;16.25;47.38
77889;BME280;67082;41.704;44.768;2023-03-23T06:12:54;95742.00;;;16.37;46.35
77889;BME280;67082;41.704;44.768;2023-03-23T06:15:39;95732.91;;;16.22;45.76
77889;BME280;67082;41.704;44.768;2023-03-23T06:18:10;95739.03;;;16.41;45.90
77889;BME280;67082;41.704;44.768;2023-03-23T06:20:51;95734.88;;;16.36;44.75
77889;BME280;67082;41.704;44.768;2023-03-23T06:23:38;95746.03;;;16.51;44.28
77889;BME280;67082;41.704;44.768;2023-03-23T06:26:11;95744.03;;;16.37;43.16
77889;BME280;67082;41.704;44.768;2023-03-23T06:28:42;95729.09;;;16.40;43.90
77889;BME280;67082;41.704;44.768;2023-03-23T06:31:10;95742.19;;;16.48;44.44
77889;BME280;67082;41.704;44.768;2023-03-23T06:33:38;95745.25;;;16.70;43.65
77889;BME280;67082;41.704;44.768;2023-03-23T06:36:25;95741.78;;;16.75;43.16
77889;BME280;67082;41.704;44.768;2023-03-23T06:39:12;95746.97;;;16.62;42.70
77889;BME280;67082;41.704;44.768;2023-03-23T06:42:18;95747.63;;;16.77;42.52
77889;BME280;67082;41.704;44.768;2023-03-23T06:44:52;95740.03;;;16.78;42.54
77889;BME280;67082;41.704;44.768;2023-03-23T06:47:19;95736.56;;;16.88;41.93
77889;BME280;67082;41.704;44.768;2023-03-23T06:49:48;95739.94;;;16.92;41.37
77889;BME280;67082;41.704;44.768;2023-03-23T06:52:21;95738.00;;;17.04;41.33
77889;BME280;67082;41.704;44.768;2023-03-23T06:54:50;95745.50;;;17.12;40.57
77889;BME280;67082;41.704;44.768;2023-03-23T06:57:21;95728.91;;;17.09;40.82
77889;BME280;67082;41.704;44.768;2023-03-23T06:59:51;95740.72;;;17.18;39.09
77889;BME280;67082;41.704;44.768;2023-03-23T07:02:18;95743.03;;;17.20;39.61
77889;BME280;67082;41.704;44.768;2023-03-23T07:04:52;95735.53;;;17.31;39.43
77889;BME280;67082;41.704;44.768;2023-03-23T07:07:31;95728.44;;;17.36;39.75
77889;BME280;67082;41.704;44.768;2023-03-23T07:10:16;95739.91;;;17.38;37.86
77889;BME280;67082;41.704;44.768;2023-03-23T07:12:44;95740.91;;;17.35;38.11
77889;BME280;67082;41.704;44.768;2023-03-23T07:15:12;95736.75;;;17.50;37.18
77889;BME280;67082;41.704;44.768;2023-03-23T07:17:42;95745.50;;;17.63;37.65
77889;BME280;67082;41.704;44.768;2023-03-23T07:20:19;95738.81;;;17.55;37.22
77889;BME280;67082;41.704;44.768;2023-03-23T07:22:46;95735.22;;;17.49;36.83
77889;BME280;67082;41.704;44.768;2023-03-23T07:25:27;95728.59;;;17.52;36.96
77889;BME280;67082;41.704;44.768;2023-03-23T07:27:58;95732.31;;;17.69;37.73
77889;BME280;67082;41.704;44.768;2023-03-23T07:30:27;95741.00;;;17.71;36.58
77889;BME280;67082;41.704;44.768;2023-03-23T07:33:03;95735.34;;;17.66;36.54
77889;BME280;67082;41.704;44.768;2023-03-23T07:35:39;95738.41;;;17.68;36.62
77889;BME280;67082;41.704;44.768;2023-03-23T07:38:15;95726.72;;;17.69;36.10
77889;BME280;67082;41.704;44.768;2023-03-23T07:40:47;95730.88;;;17.79;35.38
77889;BME280;67082;41.704;44.768;2023-03-23T07:43:17;95729.34;;;17.78;35.50
77889;BME280;67082;41.704;44.768;2023-03-23T07:45:53;95739.22;;;17.74;35.75
77889;BME280;67082;41.704;44.768;2023-03-23T07:48:29;95724.53;;;17.84;35.42
77889;BME280;67082;41.704;44.768;2023-03-23T07:51:19;95725.66;;;17.67;35.43
77889;BME280;67082;41.704;44.768;2023-03-23T07:53:55;95699.59;;;17.55;35.95
77889;BME280;67082;41.704;44.768;2023-03-23T07:56:44;95709.13;;;17.69;35.24
77889;BME280;67082;41.704;44.768;2023-03-23T07:59:23;95710.03;;;17.86;35.20
77889;BME280;67082;41.704;44.768;2023-03-23T08:02:01;95721.81;;;17.95;34.74
77889;BME280;67082;41.704;44.768;2023-03-23T08:05:02;95704.44;;;17.86;35.06
77889;BME280;67082;41.704;44.768;2023-03-23T08:07:58;95707.75;;;17.90;35.45
77889;BME280;67082;41.704;44.768;2023-03-23T08:10:54;95714.72;;;18.05;35.23
77889;BME280;67082;41.704;44.768;2023-03-23T08:13:43;95690.41;;;17.86;34.98
77889;BME280;67082;41.704;44.768;2023-03-23T08:16:34;95700.16;;;17.96;35.12
77889;BME280;67082;41.704;44.768;2023-03-23T08:19:21;95697.41;;;18.01;35.26
77889;BME280;67082;41.704;44.768;2023-03-23T08:22:17;95699.09;;;17.93;35.29
77889;BME280;67082;41.704;44.768;2023-03-23T08:25:05;95703.91;;;17.87;35.19
77889;BME280;67082;41.704;44.768;2023-03-23T08:27:59;95697.41;;;18.01;35.33
77889;BME280;67082;41.704;44.768;2023-03-23T08:30:46;95695.56;;;17.98;35.35
77889;BME280;67082;41.704;44.768;2023-03-23T08:33:36;95685.78;;;17.83;35.50
77889;BME280;67082;41.704;44.768;2023-03-23T08:36:24;95685.66;;;18.03;35.39
77889;BME280;67082;41.704;44.768;2023-03-23T08:39:32;95687.25;;;18.09;34.81
77889;BME280;67082;41.704;44.768;2023-03-23T08:42:09;95683.97;;;18.16;35.04
77889;BME280;67082;41.704;44.768;2023-03-23T08:45:16;95680.47;;;18.27;35.08
77889;BME280;67082;41.704;44.768;2023-03-23T08:48:21;95682.59;;;18.43;35.06
77889;BME280;67082;41.704;44.768;2023-03-23T08:51:08;95667.56;;;18.40;34.40
77889;BME280;67082;41.704;44.768;2023-03-23T08:53:51;95677.47;;;18.36;34.88
77889;BME280;67082;41.704;44.768;2023-03-23T08:56:43;95662.44;;;18.44;34.68
77889;BME280;67082;41.704;44.768;2023-03-23T09:03:09;95651.38;;;18.24;34.30
77889;BME280;67082;41.704;44.768;2023-03-23T09:05:59;95661.19;;;18.45;34.35
77889;BME280;67082;41.704;44.768;2023-03-23T09:08:36;95657.09;;;18.41;34.49
77889;BME280;67082;41.704;44.768;2023-03-23T09:11:07;95656.16;;;18.60;34.68
77889;BME280;67082;41.704;44.768;2023-03-23T09:13:36;95652.34;;;18.74;34.70
77889;BME280;67082;41.704;44.768;2023-03-23T09:16:04;95651.34;;;18.77;34.65
77889;BME280;67082;41.704;44.768;2023-03-23T09:18:32;95645.00;;;18.82;34.37
77889;BME280;67082;41.704;44.768;2023-03-23T09:21:00;95647.72;;;18.60;35.08
77889;BME280;67082;41.704;44.768;2023-03-23T09:23:28;95639.84;;;18.70;35.02
77889;BME280;67082;41.704;44.768;2023-03-23T09:25:57;95631.44;;;18.75;35.03
77889;BME280;67082;41.704;44.768;2023-03-23T09:28:23;95635.78;;;18.76;35.46
77889;BME280;67082;41.704;44.768;2023-03-23T09:30:54;95636.56;;;18.82;34.40
77889;BME280;67082;41.704;44.768;2023-03-23T09:33:24;95639.88;;;18.81;34.75
77889;BME280;67082;41.704;44.768;2023-03-23T09:35:51;95631.94;;;18.74;34.76
77889;BME280;67082;41.704;44.768;2023-03-23T09:38:19;95631.69;;;18.77;34.93
77889;BME280;67082;41.704;44.768;2023-03-23T09:40:58;95631.94;;;18.79;34.98
77889;BME280;67082;41.704;44.768;2023-03-23T09:43:50;95630.44;;;18.89;35.64
77889;BME280;67082;41.704;44.768;2023-03-23T09:49:23;95622.25;;;18.69;36.81
77889;BME280;67082;41.704;44.768;2023-03-23T09:52:03;95623.78;;;18.70;36.44
77889;BME280;67082;41.704;44.768;2023-03-23T09:54:52;95612.81;;;18.67;36.70
77889;BME280;67082;41.704;44.768;2023-03-23T09:57:34;95614.59;;;18.75;37.15
77889;BME280;67082;41.704;44.768;2023-03-23T10:00:17;95615.63;;;18.83;37.54
77889;BME280;67082;41.704;44.768;2023-03-23T10:05:39;95598.00;;;18.83;38.08
77889;BME280;67082;41.704;44.768;2023-03-23T10:08:17;95593.94;;;18.95;38.16
77889;BME280;67082;41.704;44.768;2023-03-23T10:11:04;95595.25;;;18.99;37.91
77889;BME280;67082;41.704;44.768;2023-03-23T10:16:29;95574.81;;;19.10;38.26
77889;BME280;67082;41.704;44.768;2023-03-23T10:21:55;95574.31;;;19.11;37.75
77889;BME280;67082;41.704;44.768;2023-03-23T10:24:34;95558.72;;;19.16;37.97
77889;BME280;67082;41.704;44.768;2023-03-23T10:27:17;95569.69;;;19.08;38.29
77889;BME280;67082;41.704;44.768;2023-03-23T10:29:50;95570.25;;;19.23;38.21
77889;BME280;67082;41.704;44.768;2023-03-23T10:32:37;95573.03;;;19.12;38.40
77889;BME280;67082;41.704;44.768;2023-03-23T10:35:32;95566.66;;;19.01;38.25
77889;BME280;67082;41.704;44.768;2023-03-23T10:38:03;95561.03;;;19.01;38.31
77889;BME280;67082;41.704;44.768;2023-03-23T10:40:31;95565.09;;;18.89;38.94
77889;BME280;67082;41.704;44.768;2023-03-23T10:43:09;95553.38;;;18.85;38.29
77889;BME280;67082;41.704;44.768;2023-03-23T10:45:36;95544.66;;;18.72;38.24
77889;BME280;67082;41.704;44.768;2023-03-23T10:48:09;95551.59;;;18.98;38.63
77889;BME280;67082;41.704;44.768;2023-03-23T10:50:38;95545.69;;;18.96;38.29
77889;BME280;67082;41.704;44.768;2023-03-23T10:53:33;95543.41;;;18.73;38.26
77889;BME280;67082;41.704;44.768;2023-03-23T10:56:04;95538.03;;;18.69;38.10
77889;BME280;67082;41.704;44.768;2023-03-23T10:58:34;95533.91;;;18.48;38.24
77889;BME280;67082;41.704;44.768;2023-03-23T11:01:03;95538.78;;;18.70;37.95
77889;BME280;67082;41.704;44.768;2023-03-23T11:03:43;95520.19;;;18.78;37.86
77889;BME280;67082;41.704;44.768;2023-03-23T11:06:20;95517.13;;;18.81;37.93
77889;BME280;67082;41.704;44.768;2023-03-23T11:08:51;95515.84;;;18.82;38.08
77889;BME280;67082;41.704;44.768;2023-03-23T11:11:31;95524.00;;;18.80;37.79
77889;BME280;67082;41.704;44.768;2023-03-23T11:14:02;95508.19;;;18.77;37.77
77889;BME280;67082;41.704;44.768;2023-03-23T11:16:33;95508.44;;;18.79;37.88
77889;BME280;67082;41.704;44.768;2023-03-23T11:19:12;95514.03;;;18.79;38.02
77889;BME280;67082;41.704;44.768;2023-03-23T11:21:45;95509.72;;;18.84;37.53
77889;BME280;67082;41.704;44.768;2023-03-23T11:24:14;95497.72;;;18.72;37.68
77889;BME280;67082;41.704;44.768;2023-03-23T11:26:43;95491.84;;;18.65;37.74
77889;BME280;67082;41.704;44.768;2023-03-23T11:29:21;95490.56;;;18.55;38.00
77889;BME280;67082;41.704;44.768;2023-03-23T11:32:02;95497.47;;;18.59;38.55
77889;BME280;67082;41.704;44.768;2023-03-23T11:34:42;95488.28;;;18.70;38.13
77889;BME280;67082;41.704;44.768;2023-03-23T11:37:14;95486.50;;;18.72;38.22
77889;BME280;67082;41.704;44.768;2023-03-23T11:39:53;95477.06;;;18.64;38.20
77889;BME280;67082;41.704;44.768;2023-03-23T11:42:23;95475.53;;;18.63;37.68
77889;BME280;67082;41.704;44.768;2023-03-23T11:45:17;95463.28;;;18.50;38.08
77889;BME280;67082;41.704;44.768;2023-03-23T11:48:06;95460.72;;;18.74;37.59
77889;BME280;67082;41.704;44.768;2023-03-23T11:54:19;95462.50;;;18.82;37.81
77889;BME280;67082;41.704;44.768;2023-03-23T11:56:48;95465.84;;;18.86;37.49
77889;BME280;67082;41.704;44.768;2023-03-23T11:59:17;95455.84;;;18.85;37.87
77889;BME280;67082;41.704;44.768;2023-03-23T12:10:24;95455.88;;;18.63;38.27
77889;BME280;67082;41.704;44.768;2023-03-23T12:13:27;95453.56;;;18.67;39.22
77889;BME280;67082;41.704;44.768;2023-03-23T12:16:17;95450.75;;;18.67;38.72
77889;BME280;67082;41.704;44.768;2023-03-23T12:35:37;95441.56;;;18.39;39.48
77889;BME280;67082;41.704;44.768;2023-03-23T12:38:28;95451.25;;;18.49;39.38
77889;BME280;67082;41.704;44.768;2023-03-23T12:49:37;95444.13;;;18.48;39.50
77889;BME280;67082;41.704;44.768;2023-03-23T12:55:13;95443.63;;;18.55;39.64
77889;BME280;67082;41.704;44.768;2023-03-23T12:58:08;95445.13;;;18.56;40.05
77889;BME280;67082;41.704;44.768;2023-03-23T13:00:58;95443.38;;;18.53;39.90
77889;BME280;67082;41.704;44.768;2023-03-23T13:03:41;95438.75;;;18.50;40.45
77889;BME280;67082;41.704;44.768;2023-03-23T13:06:36;95433.91;;;18.34;40.11
77889;BME280;67082;41.704;44.768;2023-03-23T13:09:25;95424.22;;;18.35;40.53
77889;BME280;67082;41.704;44.768;2023-03-23T13:11:56;95420.91;;;18.37;40.47
77889;BME280;67082;41.704;44.768;2023-03-23T13:14:34;95424.97;;;18.30;40.41
77889;BME280;67082;41.704;44.768;2023-03-23T13:28:14;95424.94;;;18.25;40.95
77889;BME280;67082;41.704;44.768;2023-03-23T13:30:55;95418.88;;;18.32;41.35
77889;BME280;67082;41.704;44.768;2023-03-23T13:33:23;95418.59;;;18.24;41.03
77889;BME280;67082;41.704;44.768;2023-03-23T13:35:51;95409.41;;;18.18;41.22
77889;BME280;67082;41.704;44.768;2023-03-23T13:38:27;95411.44;;;18.29;40.95
77889;BME280;67082;41.704;44.768;2023-03-23T13:40:58;95405.56;;;18.21;41.32
77889;BME280;67082;41.704;44.768;2023-03-23T13:43:34;95406.56;;;18.13;41.40
77889;BME280;67082;41.704;44.768;2023-03-23T13:48:44;95407.31;;;18.02;41.31
77889;BME280;67082;41.704;44.768;2023-03-23T13:51:36;95410.38;;;17.99;41.77
77889;BME280;67082;41.704;44.768;2023-03-23T13:54:23;95402.97;;;17.90;41.63
77889;BME280;67082;41.704;44.768;2023-03-23T13:57:00;95414.19;;;17.90;42.35
77889;BME280;67082;41.704;44.768;2023-03-23T13:59:35;95411.88;;;17.83;42.17
77889;BME280;67082;41.704;44.768;2023-03-23T14:02:36;95418.25;;;17.89;42.55
77889;BME280;67082;41.704;44.768;2023-03-23T14:05:31;95423.59;;;17.87;42.29
77889;BME280;67082;41.704;44.768;2023-03-23T14:08:14;95420.00;;;17.81;42.67
77889;BME280;67082;41.704;44.768;2023-03-23T14:16:17;95412.06;;;17.58;42.99
77889;BME280;67082;41.704;44.768;2023-03-23T14:19:01;95405.63;;;17.46;43.28
77889;BME280;67082;41.704;44.768;2023-03-23T14:23:55;95420.56;;;17.32;43.42
77889;BME280;67082;41.704;44.768;2023-03-23T14:26:22;95416.69;;;17.24;43.56
77889;BME280;67082;41.704;44.768;2023-03-23T14:28:51;95430.47;;;17.28;43.80
77889;BME280;67082;41.704;44.768;2023-03-23T14:31:21;95424.84;;;17.22;43.69
77889;BME280;67082;41.704;44.768;2023-03-23T14:33:50;95424.38;;;17.29;43.48
77889;BME280;67082;41.704;44.768;2023-03-23T14:36:28;95434.03;;;17.28;43.71
77889;BME280;67082;41.704;44.768;2023-03-23T14:39:06;95427.16;;;17.24;44.09
77889;BME280;67082;41.704;44.768;2023-03-23T14:41:34;95416.63;;;17.13;44.36
77889;BME280;67082;41.704;44.768;2023-03-23T14:44:05;95433.22;;;17.17;44.20
77889;BME280;67082;41.704;44.768;2023-03-23T14:46:33;95428.06;;;17.10;44.42
77889;BME280;67082;41.704;44.768;2023-03-23T14:49:04;95427.56;;;17.06;44.47
77889;BME280;67082;41.704;44.768;2023-03-23T14:51:33;95429.31;;;17.03;44.26
77889;BME280;67082;41.704;44.768;2023-03-23T14:54:00;95428.00;;;16.99;44.45
77889;BME280;67082;41.704;44.768;2023-03-23T14:56:35;95422.38;;;16.93;44.62
77889;BME280;67082;41.704;44.768;2023-03-23T14:59:06;95428.72;;;16.88;44.65
77889;BME280;67082;41.704;44.768;2023-03-23T15:01:37;95431.75;;;16.90;44.71
77889;BME280;67082;41.704;44.768;2023-03-23T15:04:12;95422.38;;;16.88;45.60
77889;BME280;67082;41.704;44.768;2023-03-23T15:06:43;95422.56;;;16.84;45.55
77889;BME280;67082;41.704;44.768;2023-03-23T15:09:16;95429.66;;;16.74;46.07
77889;BME280;67082;41.704;44.768;2023-03-23T15:11:55;95439.81;;;16.72;45.58
77889;BME280;67082;41.704;44.768;2023-03-23T15:14:28;95437.50;;;16.70;46.02
77889;BME280;67082;41.704;44.768;2023-03-23T15:16:58;95437.75;;;16.72;45.34
77889;BME280;67082;41.704;44.768;2023-03-23T15:19:27;95437.72;;;16.67;45.55
77889;BME280;67082;41.704;44.768;2023-03-23T15:21:56;95444.81;;;16.62;45.50
77889;BME280;67082;41.704;44.768;2023-03-23T15:24:36;95442.53;;;16.66;45.45